METAR Data
IDs: Format: Raw Decoded Include TAF

Data at: 1349 UTC 13 Dec 2019

KFSM 131253Z 08005KT 10SM OVC050 05/01 A2997 RMK AO2 SLP150 T00500011
KFSM 131153Z 06006KT 10SM OVC050 05/01 A2997 RMK AO2 SLP151 T00500011 10050 20044 56015
KFSM 131053Z AUTO 06004KT 10SM BKN050 04/01 A2997 RMK AO2 SLP150 T00440006
KFSM 130953Z AUTO 04004KT 10SM CLR 05/01 A2999 RMK AO2 SLP157 T00500011
KFSM 130853Z AUTO 06004KT 10SM FEW050 04/01 A3002 RMK AO2 SLP165 T00440011 56017
KFSM 130753Z AUTO 05003KT 10SM CLR 05/01 A3003 RMK AO2 SLP170 T00500011
KFSM 130653Z AUTO 06004KT 10SM CLR 05/01 A3004 RMK AO2 SLP174 T00500011
KFSM 130553Z AUTO 06004KT 10SM CLR 04/01 A3007 RMK AO2 SLP183 T00440011 10100 20039 401440006 58013
KFSM 130453Z AUTO 06004KT 10SM CLR 04/01 A3009 RMK AO2 SLP191 T00440006
KFSM 130353Z 03003KT 10SM FEW065 05/00 A3011 RMK AO2 SLP197 T00500000
KFSM 130253Z 04003KT 10SM SCT070 06/M01 A3011 RMK AO2 SLP197 T00561006 51006
KFSM 130153Z 00000KT 10SM CLR 06/M02 A3010 RMK AO2 SLP196 T00611017
KFSM 130053Z 10003KT 10SM CLR 08/M02 A3010 RMK AO2 SLP194 T00831022
KFSM 122353Z 11005KT 10SM CLR 10/M02 A3009 RMK AO2 SLP190 T01001022 10144 20094 56013
KFSM 122253Z 12005KT 10SM CLR 12/M03 A3010 RMK AO2 SLP195 T01221028
KFSM 122153Z 14006KT 10SM CLR 13/M03 A3011 RMK AO2 SLP196 T01331033
KFSM 122053Z 17005KT 10SM CLR 14/M04 A3013 RMK AO2 SLP203 T01391044 56042
KFSM 121953Z 13006KT 10SM CLR 14/M04 A3016 RMK AO2 SLP213 T01391044
KFSM 121853Z 16006KT 10SM CLR 13/M04 A3020 RMK AO2 SLP227 T01331039
KFSM 121753Z 06009KT 10SM CLR 11/01 A3025 RMK AO2 SLP245 T01060006 10106 20006 58030
KFSM 121653Z 07008KT 10SM CLR 08/01 A3031 RMK AO2 SLP265 T00780006
KFSM 121553Z 06008KT 10SM CLR 06/01 A3034 RMK AO2 SLP277 T00560011
KFSM 121453Z 08007KT 10SM CLR 04/01 A3034 RMK AO2 SLP277 T00390006 58012
KFSM 121353Z 09006KT 10SM CLR 02/M01 A3036 RMK AO2 SLP282 T00171006
KFSM 121253Z 06005KT 10SM CLR 01/M01 A3038 RMK AO2 SLP289 T00111006 $
KFSM 121153Z 02003KT 10SM CLR 01/M01 A3038 RMK AO2 SLP289 T00111006 10028 20006 55002 $
KFSM 121053Z AUTO 07005KT 10SM CLR 01/M01 A3037 RMK AO2 SLP286 T00111011 $
KFSM 120953Z AUTO 05005KT 10SM CLR 02/M01 A3037 RMK AO2 SLP287 T00171006 $
KFSM 120853Z AUTO 04004KT 10SM CLR 01/M01 A3038 RMK AO2 SLP290 T00111011 55009 $
KFSM 120753Z AUTO 03005KT 10SM CLR 02/M01 A3038 RMK AO2 SLP290 T00221011 $
KFSM 120653Z AUTO 00000KT 10SM CLR 01/M01 A3040 RMK AO2 SLP295 T00111011 $
KFSM 120553Z AUTO 06004KT 10SM CLR 01/M02 A3041 RMK AO2 SLP300 T00111017 10078 20006 401221056 50002 $
KFSM 120453Z 03003KT 10SM CLR 02/M01 A3042 RMK AO2 SLP304 T00221011 $
KFSM 120353Z 05003KT 10SM CLR 03/M01 A3041 RMK AO2 SLP301 T00281011 $
KFSM 120253Z 07003KT 10SM CLR 04/M02 A3041 RMK AO2 SLP299 T00391017 58007 $
KFSM 120153Z 11005KT 10SM CLR 06/M02 A3041 RMK AO2 SLP302 T00611017 $